Time;durP1;ratioP1;P1;durP2;ratioP2;P2;SDS_P1;SDS_P2;PMS_P1;PMS_P2;Temp;Humidity;BMP_temperature;BMP_pressure;BME280_temperature;BME280_humidity;BME280_pressure;Samples;Min_cycle;Max_cycle;Signal;HPM_P1;HPM_P2
2021/05/08 00:01:11;;;;;;;11.85;2.50;;;27.50;92.10;;;;;;5103738;28;20024;-54
2021/05/08 00:03:37;;;;;;;7.22;2.25;;;27.50;92.10;;;;;;5104126;28;20337;-53
2021/05/08 00:06:07;;;;;;;4.88;1.63;;;27.50;92.10;;;;;;5104314;28;20044;-55
2021/05/08 00:08:35;;;;;;;3.33;1.70;;;27.50;92.20;;;;;;5103620;28;20054;-53
2021/05/08 00:11:02;;;;;;;8.07;2.05;;;27.40;92.10;;;;;;5103768;28;20020;-53
2021/05/08 00:13:29;;;;;;;10.25;2.17;;;27.40;92.10;;;;;;5103938;28;20024;-53
2021/05/08 00:15:55;;;;;;;3.72;1.90;;;27.40;92.00;;;;;;5103976;28;20020;-52
2021/05/08 00:18:22;;;;;;;4.07;1.98;;;27.40;91.90;;;;;;5104162;28;20032;-53
2021/05/08 00:20:49;;;;;;;5.90;1.70;;;27.40;92.00;;;;;;5103637;28;20250;-52
2021/05/08 00:23:16;;;;;;;7.10;2.03;;;27.40;92.10;;;;;;5103776;28;20032;-55
2021/05/08 00:25:42;;;;;;;4.82;1.80;;;27.40;92.10;;;;;;5085943;28;20028;-53
2021/05/08 00:28:09;;;;;;;6.55;2.17;;;27.30;92.20;;;;;;5085883;28;20020;-55
2021/05/08 00:30:36;;;;;;;6.82;1.83;;;27.40;92.30;;;;;;5085740;28;20209;-53
2021/05/08 00:33:02;;;;;;;4.07;1.90;;;27.40;92.40;;;;;;5104348;28;20087;-51
2021/05/08 00:35:29;;;;;;;6.85;2.17;;;27.30;92.50;;;;;;5103673;28;20040;-51
2021/05/08 00:37:55;;;;;;;4.32;2.05;;;27.30;92.50;;;;;;5103878;28;20035;-56
2021/05/08 00:40:22;;;;;;;7.07;2.00;;;27.30;92.50;;;;;;5103544;28;20020;-54
2021/05/08 00:42:49;;;;;;;6.70;1.80;;;27.30;92.60;;;;;;5089523;28;20331;-52
2021/05/08 00:45:15;;;;;;;5.32;2.00;;;27.30;92.70;;;;;;5107108;28;20027;-55
2021/05/08 00:47:47;;;;;;;6.30;1.83;;;27.30;92.80;;;;;;5107377;28;20012;-55
2021/05/08 00:50:21;;;;;;;6.75;1.33;;;27.30;92.80;;;;;;5089584;28;20035;-53
2021/05/08 00:52:48;;;;;;;7.38;1.77;;;27.30;92.80;;;;;;5088316;28;20032;-54
2021/05/08 00:55:14;;;;;;;8.88;1.88;;;27.30;92.80;;;;;;5106114;28;20027;-56
2021/05/08 00:57:42;;;;;;;5.50;2.20;;;27.30;92.80;;;;;;5107013;28;20308;-56
2021/05/08 01:00:11;;;;;;;11.55;3.30;;;27.30;92.90;;;;;;5089272;28;20038;-57
2021/05/08 01:02:38;;;;;;;11.13;3.20;;;27.30;92.90;;;;;;5105580;28;20359;-55
2021/05/08 01:05:07;;;;;;;7.57;3.17;;;27.30;92.80;;;;;;5106914;28;20079;-54
2021/05/08 01:07:40;;;;;;;6.18;2.55;;;27.30;92.80;;;;;;5106510;28;20048;-53
2021/05/08 01:10:09;;;;;;;5.15;2.05;;;27.30;92.90;;;;;;5106690;28;20212;-55
2021/05/08 01:12:37;;;;;;;8.65;2.35;;;27.20;92.80;;;;;;5106423;28;20016;-51
2021/05/08 01:15:10;;;;;;;5.57;2.28;;;27.30;92.80;;;;;;5106650;28;20243;-54
2021/05/08 01:17:40;;;;;;;7.80;2.88;;;27.30;92.80;;;;;;5088540;28;20317;-51
2021/05/08 01:20:12;;;;;;;5.53;2.75;;;27.20;92.80;;;;;;5106531;28;20024;-54
2021/05/08 01:22:39;;;;;;;4.93;2.05;;;27.20;92.80;;;;;;5106461;28;20016;-51
2021/05/08 01:25:15;;;;;;;7.22;2.00;;;27.20;92.70;;;;;;5106675;28;20028;-56
2021/05/08 01:27:50;;;;;;;5.10;1.83;;;27.20;92.70;;;;;;5106196;28;20320;-52
2021/05/08 01:30:23;;;;;;;6.28;1.52;;;27.20;92.70;;;;;;5106183;28;20039;-54
2021/05/08 01:32:50;;;;;;;3.88;1.45;;;27.20;92.70;;;;;;5105854;28;20053;-52
2021/05/08 01:35:17;;;;;;;6.95;1.40;;;27.20;92.60;;;;;;5106265;28;20078;-51
2021/05/08 01:37:45;;;;;;;5.63;1.40;;;27.20;92.60;;;;;;5106005;28;20020;-52
2021/05/08 01:40:13;;;;;;;3.33;1.00;;;27.20;92.50;;;;;;5105766;28;20288;-53
2021/05/08 01:42:47;;;;;;;5.15;0.98;;;27.20;92.50;;;;;;5106172;28;20016;-56
2021/05/08 01:45:17;;;;;;;5.82;1.30;;;27.10;92.40;;;;;;5105988;28;20213;-51
2021/05/08 01:47:44;;;;;;;3.88;0.93;;;27.10;92.40;;;;;;5105828;28;20093;-54
2021/05/08 01:50:17;;;;;;;8.10;1.30;;;27.10;92.40;;;;;;5105845;28;20092;-54
2021/05/08 01:52:44;;;;;;;12.90;1.63;;;27.10;92.30;;;;;;5104848;28;20083;-54
2021/05/08 01:55:22;;;;;;;3.60;0.88;;;27.10;92.30;;;;;;5105519;28;20059;-60
2021/05/08 01:57:57;;;;;;;4.30;1.20;;;27.10;92.40;;;;;;5105404;28;20019;-58
2021/05/08 02:00:27;;;;;;;3.58;1.00;;;27.10;92.40;;;;;;5105827;28;20034;-61
2021/05/08 02:02:55;;;;;;;7.95;1.20;;;27.10;92.30;;;;;;5106039;28;20042;-51
2021/05/08 02:05:23;;;;;;;10.55;1.30;;;27.10;92.40;;;;;;5105502;28;20312;-51
2021/05/08 02:07:50;;;;;;;3.92;1.48;;;27.00;92.30;;;;;;5105229;28;20044;-51
2021/05/08 02:10:17;;;;;;;7.00;1.33;;;27.00;92.20;;;;;;5105437;28;20031;-51
2021/05/08 02:12:44;;;;;;;7.55;1.25;;;27.00;92.10;;;;;;5105341;28;20020;-54
2021/05/08 02:15:13;;;;;;;8.13;1.42;;;27.00;92.10;;;;;;5105436;28;20212;-51
2021/05/08 02:17:40;;;;;;;5.32;1.35;;;27.00;92.10;;;;;;5105558;28;20027;-54
2021/05/08 02:20:12;;;;;;;12.18;1.63;;;27.10;92.00;;;;;;5105159;28;20094;-51
2021/05/08 02:22:39;;;;;;;35.78;3.92;;;27.00;92.00;;;;;;5105104;28;20065;-52
2021/05/08 02:25:07;;;;;;;17.38;2.80;;;27.00;91.90;;;;;;5105208;28;20032;-58
2021/05/08 02:27:34;;;;;;;15.63;2.03;;;26.90;91.90;;;;;;5087608;28;20027;-52
2021/05/08 02:30:01;;;;;;;6.72;1.35;;;27.00;91.80;;;;;;5105345;28;20028;-51
2021/05/08 02:32:28;;;;;;;9.05;0.95;;;27.00;91.50;;;;;;5104993;28;20016;-55
2021/05/08 02:34:54;;;;;;;6.68;1.02;;;26.90;91.40;;;;;;5104946;28;20036;-51
2021/05/08 02:37:21;;;;;;;5.72;1.00;;;26.90;91.10;;;;;;5104798;28;20016;-52
2021/05/08 02:39:48;;;;;;;3.92;0.70;;;26.90;91.00;;;;;;5105445;28;20012;-56
2021/05/08 02:42:14;;;;;;;6.47;0.80;;;26.90;90.90;;;;;;5104893;28;20042;-57
2021/05/08 02:44:41;;;;;;;5.45;0.90;;;26.90;91.00;;;;;;5105245;28;20035;-52
2021/05/08 02:47:45;;;;;;;4.68;1.10;;;26.90;90.80;;;;;;5087172;28;20024;-55
2021/05/08 02:50:15;;;;;;;3.72;0.82;;;26.90;90.80;;;;;;5104670;28;20020;-49
2021/05/08 02:52:42;;;;;;;5.00;0.90;;;26.80;90.80;;;;;;5104251;28;20028;-51
2021/05/08 02:55:10;;;;;;;4.93;0.88;;;26.80;90.80;;;;;;5104591;28;20091;-51
2021/05/08 02:57:37;;;;;;;4.40;1.00;;;26.80;90.90;;;;;;5104550;28;20039;-52
2021/05/08 03:00:07;;;;;;;5.93;1.13;;;26.80;90.90;;;;;;5104467;28;20313;-59
2021/05/08 03:02:34;;;;;;;5.88;1.35;;;26.80;91.00;;;;;;5087055;28;20024;-59
2021/05/08 03:05:01;;;;;;;4.63;1.00;;;26.80;91.00;;;;;;5105064;28;20177;-54
2021/05/08 03:07:27;;;;;;;2.95;1.23;;;26.80;91.10;;;;;;5104282;28;20275;-54
2021/05/08 03:09:54;;;;;;;5.45;0.77;;;26.80;91.20;;;;;;5104428;28;20027;-55
2021/05/08 03:12:21;;;;;;;4.32;1.08;;;26.70;91.20;;;;;;5104440;28;20030;-52
2021/05/08 03:14:47;;;;;;;4.78;1.00;;;26.70;91.20;;;;;;5104762;28;20020;-55
2021/05/08 03:17:14;;;;;;;8.30;0.95;;;26.70;91.50;;;;;;5104340;28;20051;-55
2021/05/08 03:19:41;;;;;;;6.82;1.08;;;26.70;91.30;;;;;;5104939;28;20019;-52
2021/05/08 03:22:07;;;;;;;4.40;0.90;;;26.70;91.30;;;;;;5104256;28;20035;-57
2021/05/08 03:24:34;;;;;;;7.85;1.48;;;26.60;91.30;;;;;;5104757;28;20023;-52
2021/05/08 03:27:01;;;;;;;5.75;1.10;;;26.70;91.30;;;;;;5104165;28;20020;-57
2021/05/08 03:29:28;;;;;;;4.65;0.80;;;26.70;91.40;;;;;;5104018;28;20328;-51
2021/05/08 03:31:55;;;;;;;9.52;1.13;;;26.60;91.40;;;;;;5104239;28;20036;-55
2021/05/08 03:34:22;;;;;;;10.02;0.95;;;26.60;91.40;;;;;;5104789;28;20027;-52
2021/05/08 03:36:49;;;;;;;7.28;0.98;;;26.60;91.40;;;;;;5103457;28;20028;-54
2021/05/08 03:39:16;;;;;;;6.35;1.08;;;26.60;91.40;;;;;;5104317;28;20106;-55
2021/05/08 03:41:43;;;;;;;4.97;1.23;;;26.60;91.40;;;;;;5103927;28;20422;-59
2021/05/08 03:44:10;;;;;;;6.97;1.40;;;26.60;91.50;;;;;;5104162;28;20024;-55
2021/05/08 03:46:36;;;;;;;6.00;1.17;;;26.60;91.50;;;;;;5086381;28;20024;-59
2021/05/08 03:49:04;;;;;;;4.80;1.20;;;26.60;91.50;;;;;;5104506;28;20020;-60
2021/05/08 03:51:31;;;;;;;8.07;0.98;;;26.60;91.50;;;;;;5103859;28;20264;-55
2021/05/08 03:53:58;;;;;;;4.30;1.02;;;26.50;91.50;;;;;;5104288;28;20066;-56
2021/05/08 03:56:25;;;;;;;7.05;1.00;;;26.50;91.50;;;;;;5103584;28;20343;-55
2021/05/08 03:58:52;;;;;;;7.15;1.00;;;26.50;91.40;;;;;;5104165;28;20024;-55
2021/05/08 04:01:18;;;;;;;4.95;1.20;;;26.50;91.50;;;;;;5104054;28;20023;-53
2021/05/08 04:03:45;;;;;;;6.68;1.10;;;26.50;91.50;;;;;;5104315;28;20020;-54
2021/05/08 04:06:12;;;;;;;5.13;1.10;;;26.50;91.50;;;;;;5103918;28;20331;-57
2021/05/08 04:08:39;;;;;;;6.05;1.80;;;26.50;91.50;;;;;;5103865;28;20048;-54
2021/05/08 04:11:05;;;;;;;6.13;2.13;;;26.50;91.50;;;;;;5104172;28;20188;-51
2021/05/08 04:13:32;;;;;;;8.65;2.53;;;26.40;91.50;;;;;;5103444;28;20347;-54
2021/05/08 04:15:59;;;;;;;5.15;1.92;;;26.50;91.50;;;;;;5086852;28;20028;-55
2021/05/08 04:18:25;;;;;;;9.95;3.40;;;26.50;91.50;;;;;;5108094;28;20091;-51
2021/05/08 04:20:52;;;;;;;5.03;2.25;;;26.50;91.40;;;;;;5107970;28;20024;-51
2021/05/08 04:23:18;;;;;;;10.27;2.90;;;26.40;91.40;;;;;;5108232;28;20040;-52
2021/05/08 04:25:45;;;;;;;8.90;4.40;;;26.40;91.50;;;;;;5107656;28;20049;-56
2021/05/08 04:28:12;;;;;;;7.18;3.30;;;26.40;91.40;;;;;;5107577;28;20415;-55
2021/05/08 04:30:39;;;;;;;9.70;3.10;;;26.40;91.40;;;;;;5107346;28;20216;-55
2021/05/08 04:33:06;;;;;;;9.13;2.47;;;26.40;91.40;;;;;;5107822;28;20028;-59
2021/05/08 04:35:32;;;;;;;13.50;2.83;;;26.40;91.40;;;;;;5107425;28;20051;-54
2021/05/08 04:38:05;;;;;;;5.78;2.15;;;26.40;91.50;;;;;;5107174;28;20285;-55
2021/05/08 04:40:32;;;;;;;7.32;2.05;;;26.30;91.50;;;;;;5107229;28;20242;-51
2021/05/08 04:42:59;;;;;;;7.50;1.85;;;26.30;91.60;;;;;;5107449;28;20043;-58
2021/05/08 04:45:26;;;;;;;8.43;1.70;;;26.30;91.50;;;;;;5106747;28;20137;-59
2021/05/08 04:47:57;;;;;;;7.93;2.35;;;26.30;91.60;;;;;;5107198;28;20027;-59
2021/05/08 04:50:25;;;;;;;10.32;1.83;;;26.30;91.70;;;;;;5107078;28;20020;-59
2021/05/08 04:52:54;;;;;;;7.10;1.50;;;26.30;91.80;;;;;;5107591;28;20035;-51
2021/05/08 04:55:22;;;;;;;7.47;1.60;;;26.30;91.80;;;;;;5107079;28;20158;-59
2021/05/08 04:57:49;;;;;;;11.57;1.73;;;26.30;91.80;;;;;;5106804;28;20028;-52
2021/05/08 05:00:18;;;;;;;10.75;1.58;;;26.30;91.80;;;;;;5106999;28;20030;-53
2021/05/08 05:02:47;;;;;;;6.55;1.60;;;26.30;91.70;;;;;;5106412;28;20373;-57
2021/05/08 05:05:15;;;;;;;5.82;1.20;;;26.30;91.80;;;;;;5088877;28;20051;-56
2021/05/08 05:07:45;;;;;;;11.85;1.70;;;26.30;91.90;;;;;;5106783;28;20058;-54
2021/05/08 05:10:13;;;;;;;9.57;1.30;;;26.30;92.00;;;;;;5106781;28;20016;-57
2021/05/08 05:12:40;;;;;;;9.82;1.30;;;26.20;92.00;;;;;;5106407;28;20201;-58
2021/05/08 05:15:10;;;;;;;9.63;1.52;;;26.30;92.00;;;;;;5106294;28;20016;-56
2021/05/08 05:17:37;;;;;;;7.28;1.00;;;26.20;92.00;;;;;;5106185;28;20027;-54
2021/05/08 05:20:05;;;;;;;7.15;1.55;;;26.20;92.10;;;;;;5106396;28;20039;-54
2021/05/08 05:22:31;;;;;;;11.90;1.50;;;26.20;92.10;;;;;;5106128;28;20088;-58
2021/05/08 05:24:58;;;;;;;5.90;1.05;;;26.20;92.00;;;;;;5106286;28;20241;-56
2021/05/08 05:27:25;;;;;;;14.05;1.60;;;26.20;92.00;;;;;;5111711;28;20079;-54
2021/05/08 05:29:51;;;;;;;14.10;1.67;;;26.10;92.10;;;;;;5125955;28;20378;-60
2021/05/08 05:32:18;;;;;;;12.32;1.55;;;26.10;92.10;;;;;;5125686;28;20019;-55
2021/05/08 05:34:44;;;;;;;7.82;1.40;;;26.00;92.10;;;;;;5126016;28;20023;-53
2021/05/08 05:37:11;;;;;;;9.20;1.40;;;26.00;92.30;;;;;;5125821;28;20019;-51
2021/05/08 05:39:37;;;;;;;12.65;1.63;;;26.00;92.50;;;;;;5126148;28;20051;-53
2021/05/08 05:42:04;;;;;;;10.82;1.40;;;26.00;92.40;;;;;;5125824;28;20015;-53
2021/05/08 05:44:31;;;;;;;7.05;1.13;;;26.00;92.40;;;;;;5125856;28;20215;-58
2021/05/08 05:46:58;;;;;;;7.03;0.90;;;26.00;92.30;;;;;;5125540;28;20022;-61
2021/05/08 05:49:25;;;;;;;15.02;1.52;;;26.00;92.30;;;;;;5125723;28;20022;-58
2021/05/08 05:51:51;;;;;;;12.15;1.40;;;26.00;92.20;;;;;;5125607;28;20026;-53
2021/05/08 05:54:18;;;;;;;8.18;1.00;;;26.10;92.30;;;;;;5126023;28;20030;-54
2021/05/08 05:56:45;;;;;;;7.05;0.82;;;26.10;92.40;;;;;;5125285;28;20019;-55
2021/05/08 05:59:11;;;;;;;8.68;1.13;;;26.00;92.40;;;;;;5125460;28;20095;-56
2021/05/08 06:01:38;;;;;;;7.93;0.88;;;26.00;92.50;;;;;;5125404;28;20012;-55
2021/05/08 06:04:05;;;;;;;6.68;0.90;;;26.10;92.60;;;;;;5125464;28;20192;-59
2021/05/08 06:06:33;;;;;;;8.00;0.98;;;26.10;92.60;;;;;;5125193;28;20043;-57
2021/05/08 06:09:00;;;;;;;4.63;0.80;;;26.00;92.60;;;;;;5125728;28;20088;-53
2021/05/08 06:11:26;;;;;;;14.52;1.65;;;26.00;92.60;;;;;;5125509;28;20062;-54
2021/05/08 06:13:53;;;;;;;9.10;1.02;;;26.00;92.50;;;;;;5125972;28;20032;-53
2021/05/08 06:16:20;;;;;;;7.45;0.73;;;26.10;92.60;;;;;;5125569;28;20015;-57
2021/05/08 06:18:46;;;;;;;7.57;0.77;;;26.00;92.60;;;;;;5125926;28;20069;-56
2021/05/08 06:21:13;;;;;;;10.32;0.93;;;26.00;92.70;;;;;;5125918;28;20031;-59
2021/05/08 06:23:40;;;;;;;10.27;1.02;;;26.00;92.70;;;;;;5125487;28;20024;-63
2021/05/08 06:26:06;;;;;;;11.05;1.10;;;26.00;92.70;;;;;;5125636;28;20297;-52
2021/05/08 06:28:33;;;;;;;6.18;0.88;;;26.00;92.70;;;;;;5125305;28;20086;-56
2021/05/08 06:30:59;;;;;;;7.25;0.80;;;26.00;92.60;;;;;;5125403;28;20046;-53
2021/05/08 06:33:26;;;;;;;7.68;1.20;;;26.00;92.60;;;;;;5125636;28;20331;-55
2021/05/08 06:35:53;;;;;;;13.43;1.20;;;26.00;92.60;;;;;;5124786;28;20055;-54
2021/05/08 06:38:19;;;;;;;8.23;1.20;;;26.00;92.60;;;;;;5125195;28;20072;-57
2021/05/08 06:40:46;;;;;;;7.65;1.42;;;26.00;92.70;;;;;;5125140;28;20129;-54
2021/05/08 06:43:12;;;;;;;8.85;1.35;;;25.90;92.70;;;;;;5124842;28;20028;-52
2021/05/08 06:45:39;;;;;;;8.73;0.80;;;25.90;92.70;;;;;;5125023;28;20020;-54
2021/05/08 06:48:09;;;;;;;11.15;1.25;;;25.90;92.70;;;;;;5124859;28;20088;-54
2021/05/08 06:50:36;;;;;;;7.35;1.10;;;25.90;92.70;;;;;;5124701;28;20244;-58
2021/05/08 06:53:03;;;;;;;7.03;1.33;;;25.90;92.70;;;;;;5124866;28;20039;-56
2021/05/08 06:55:30;;;;;;;7.30;1.23;;;25.90;92.70;;;;;;5124933;28;20304;-58
2021/05/08 06:57:57;;;;;;;7.88;1.15;;;25.90;92.70;;;;;;5124325;28;20319;-57
2021/05/08 07:00:24;;;;;;;9.32;1.05;;;25.90;92.70;;;;;;5124805;28;20031;-56
2021/05/08 07:02:51;;;;;;;7.10;1.33;;;25.80;92.80;;;;;;5124859;28;20015;-53
2021/05/08 07:05:17;;;;;;;4.75;1.00;;;25.90;92.80;;;;;;5124919;28;20015;-53
2021/05/08 07:07:44;;;;;;;4.65;1.08;;;25.90;92.80;;;;;;5124613;28;20035;-58
2021/05/08 07:10:11;;;;;;;4.55;0.93;;;25.90;92.70;;;;;;5124393;28;20030;-53
2021/05/08 07:12:39;;;;;;;6.50;1.02;;;25.90;92.70;;;;;;5124461;28;20304;-53
2021/05/08 07:15:06;;;;;;;5.53;1.13;;;25.90;92.60;;;;;;5124449;28;20020;-53
2021/05/08 07:17:33;;;;;;;10.45;1.10;;;25.90;92.70;;;;;;5124395;28;20023;-56
2021/05/08 07:19:59;;;;;;;7.95;1.17;;;25.90;92.80;;;;;;5106518;28;20368;-54
2021/05/08 07:22:26;;;;;;;6.50;0.95;;;25.90;92.90;;;;;;5124953;28;20239;-54
2021/05/08 07:24:52;;;;;;;8.30;1.95;;;25.90;92.90;;;;;;5124453;28;20231;-56
2021/05/08 07:27:21;;;;;;;7.72;1.15;;;25.90;92.80;;;;;;5124786;28;20322;-59
2021/05/08 07:29:47;;;;;;;6.97;1.30;;;25.90;92.70;;;;;;5124206;28;20023;-56
2021/05/08 07:32:14;;;;;;;11.25;1.23;;;25.90;92.70;;;;;;5124333;28;20064;-55
2021/05/08 07:34:41;;;;;;;9.77;1.00;;;25.90;92.80;;;;;;5123913;28;20035;-61
2021/05/08 07:37:07;;;;;;;7.75;0.90;;;25.90;92.80;;;;;;5124376;28;20031;-62
2021/05/08 07:39:34;;;;;;;7.75;1.02;;;25.90;92.90;;;;;;5124814;28;20292;-56
2021/05/08 07:42:01;;;;;;;8.88;1.02;;;25.80;92.80;;;;;;5124098;28;20193;-56
2021/05/08 07:44:27;;;;;;;9.15;1.42;;;25.80;92.70;;;;;;5124832;28;20296;-54
2021/05/08 07:46:54;;;;;;;8.88;0.80;;;25.80;92.80;;;;;;5124484;28;20020;-52
2021/05/08 07:49:21;;;;;;;5.38;1.10;;;25.80;92.90;;;;;;5124438;28;20043;-57
2021/05/08 07:51:47;;;;;;;12.25;1.10;;;25.80;92.90;;;;;;5126980;28;20034;-53
2021/05/08 07:54:14;;;;;;;11.20;1.33;;;25.80;92.90;;;;;;5128396;28;20045;-64
2021/05/08 07:56:40;;;;;;;9.95;1.15;;;25.80;92.90;;;;;;5128322;28;20296;-57
2021/05/08 07:59:07;;;;;;;5.97;0.85;;;25.80;92.90;;;;;;5128735;28;20051;-59
2021/05/08 08:01:34;;;;;;;10.85;1.00;;;25.80;92.90;;;;;;5128413;28;20023;-54
2021/05/08 08:04:00;;;;;;;7.22;1.15;;;25.80;92.90;;;;;;5128779;28;20019;-55
2021/05/08 08:06:27;;;;;;;4.43;1.02;;;25.80;92.90;;;;;;5128526;28;20028;-54
2021/05/08 08:08:54;;;;;;;9.95;0.88;;;25.80;93.00;;;;;;5128423;28;20028;-55
2021/05/08 08:11:20;;;;;;;9.02;0.93;;;25.80;93.00;;;;;;5128351;28;20239;-58
2021/05/08 08:13:48;;;;;;;11.45;1.20;;;25.80;93.00;;;;;;5128631;28;20038;-61
2021/05/08 08:16:15;;;;;;;8.77;1.13;;;25.80;93.00;;;;;;5127991;28;20085;-57
2021/05/08 08:18:42;;;;;;;6.93;1.05;;;25.80;93.10;;;;;;5127893;28;20053;-54
2021/05/08 08:21:08;;;;;;;7.30;0.85;;;25.80;93.00;;;;;;5127980;28;20019;-55
2021/05/08 08:23:35;;;;;;;7.93;1.02;;;25.80;93.10;;;;;;5128304;28;20020;-59
2021/05/08 08:26:01;;;;;;;5.82;1.23;;;25.80;93.20;;;;;;5127948;28;20083;-59
2021/05/08 08:28:28;;;;;;;7.72;1.20;;;25.70;93.20;;;;;;5127808;28;20028;-63
2021/05/08 08:30:55;;;;;;;8.38;1.13;;;25.80;93.20;;;;;;5127800;28;20023;-59
2021/05/08 08:33:21;;;;;;;11.88;1.20;;;25.80;93.30;;;;;;5127888;28;20027;-55
2021/05/08 08:35:48;;;;;;;8.27;0.90;;;25.80;93.30;;;;;;5127780;28;20028;-56
2021/05/08 08:38:16;;;;;;;7.72;1.00;;;25.80;93.30;;;;;;5127511;28;20353;-55
2021/05/08 08:40:44;;;;;;;9.07;0.85;;;25.80;93.20;;;;;;5127386;28;20043;-58
2021/05/08 08:43:12;;;;;;;11.43;1.10;;;25.80;93.20;;;;;;5127832;28;20034;-54
2021/05/08 08:45:39;;;;;;;7.53;1.00;;;25.80;93.30;;;;;;5127746;28;20091;-54
2021/05/08 08:48:06;;;;;;;9.13;1.05;;;25.80;93.30;;;;;;5127776;28;20034;-52
2021/05/08 08:50:37;;;;;;;8.10;0.98;;;25.80;93.30;;;;;;5127397;28;20076;-52
2021/05/08 08:53:08;;;;;;;7.55;1.17;;;25.80;93.30;;;;;;5127694;28;20061;-56
2021/05/08 08:55:36;;;;;;;8.27;0.98;;;25.80;93.20;;;;;;5127126;28;20090;-57
2021/05/08 08:58:05;;;;;;;11.45;1.10;;;25.80;93.20;;;;;;5126913;28;20103;-57
2021/05/08 09:00:32;;;;;;;10.57;1.25;;;25.80;93.30;;;;;;5126925;28;20042;-54
2021/05/08 09:03:01;;;;;;;4.15;0.80;;;25.70;93.30;;;;;;5126936;28;20015;-60
2021/05/08 09:05:28;;;;;;;9.30;0.90;;;25.80;93.40;;;;;;5127059;28;20321;-56
2021/05/08 09:08:07;;;;;;;12.20;1.23;;;25.70;93.40;;;;;;5126211;28;20039;-57
2021/05/08 09:10:34;;;;;;;11.02;1.20;;;25.80;93.40;;;;;;5125701;28;20240;-54
2021/05/08 09:13:03;;;;;;;8.80;1.08;;;25.80;93.40;;;;;;5125742;28;20086;-60
2021/05/08 09:15:35;;;;;;;14.50;1.30;;;25.80;93.40;;;;;;5125997;28;20023;-54
2021/05/08 09:18:03;;;;;;;7.97;0.82;;;25.80;93.40;;;;;;5125732;28;20039;-56
2021/05/08 09:20:52;;;;;;;9.23;1.13;;;25.70;93.30;;;;;;5125997;28;20117;-53
2021/05/08 09:23:33;;;;;;;8.88;1.05;;;25.70;93.30;;;;;;5126085;28;20038;-59
2021/05/08 09:26:11;;;;;;;8.93;0.85;;;25.70;93.40;;;;;;5125843;28;20011;-53
2021/05/08 09:28:40;;;;;;;6.93;1.02;;;25.70;93.40;;;;;;5125833;28;20019;-54
2021/05/08 09:31:12;;;;;;;9.70;1.05;;;25.80;93.40;;;;;;5125570;28;20011;-53
2021/05/08 09:33:38;;;;;;;10.73;1.15;;;25.70;93.40;;;;;;5125381;28;20231;-53
2021/05/08 09:36:08;;;;;;;10.52;1.15;;;25.70;93.50;;;;;;5125437;28;20023;-60
2021/05/08 09:38:36;;;;;;;12.00;1.48;;;25.70;93.50;;;;;;5125928;28;20028;-60
2021/05/08 09:41:10;;;;;;;7.82;0.82;;;25.70;93.50;;;;;;5106823;28;20296;-54
2021/05/08 09:43:38;;;;;;;12.07;1.30;;;25.70;93.60;;;;;;5125694;28;20058;-53
2021/05/08 09:46:06;;;;;;;11.20;1.10;;;25.70;93.60;;;;;;5125675;28;20019;-53
2021/05/08 09:48:34;;;;;;;10.98;1.50;;;25.70;93.60;;;;;;5125734;28;20035;-53
2021/05/08 09:53:51;;;;;;;16.15;1.10;;;25.70;93.60;;;;;;5125555;28;20028;-53
2021/05/08 09:56:37;;;;;;;15.25;1.30;;;25.70;93.60;;;;;;5125221;28;20234;-59
2021/05/08 09:59:42;;;;;;;13.50;1.20;;;25.70;93.50;;;;;;5125383;28;20047;-52
2021/05/08 10:02:09;;;;;;;14.68;1.50;;;25.70;93.40;;;;;;5022895;28;20025;-54
2021/05/08 10:04:47;;;;;;;11.52;1.33;;;25.70;93.40;;;;;;5022956;28;20080;-54
2021/05/08 10:07:21;;;;;;;9.05;1.33;;;25.70;93.50;;;;;;5027903;28;1473357;-54
2021/05/08 10:09:50;;;;;;;11.93;0.98;;;25.70;93.50;;;;;;5126445;28;20098;-56
2021/05/08 10:12:21;;;;;;;12.63;1.65;;;25.70;93.50;;;;;;5125905;28;20198;-56
2021/05/08 10:14:50;;;;;;;9.48;1.13;;;25.70;93.50;;;;;;5125964;28;20019;-55
2021/05/08 10:17:27;;;;;;;7.43;1.50;;;25.70;93.50;;;;;;5125793;28;20028;-58
2021/05/08 10:20:08;;;;;;;14.93;2.00;;;25.60;93.50;;;;;;5108716;28;20223;-54
2021/05/08 10:22:58;;;;;;;6.93;1.42;;;25.60;93.60;;;;;;5125748;28;20020;-57
2021/05/08 10:25:29;;;;;;;9.65;1.45;;;25.60;93.60;;;;;;5125402;28;20168;-56
2021/05/08 10:27:56;;;;;;;11.25;1.30;;;25.60;93.60;;;;;;5125723;28;20042;-53
2021/05/08 10:30:40;;;;;;;11.00;1.20;;;25.60;93.70;;;;;;5125906;28;20024;-56
2021/05/08 10:33:10;;;;;;;13.60;1.52;;;25.60;93.70;;;;;;5125332;28;20031;-53
2021/05/08 10:35:49;;;;;;;11.82;1.52;;;25.60;93.70;;;;;;5125276;28;20011;-53
2021/05/08 10:38:27;;;;;;;13.43;1.88;;;25.60;93.70;;;;;;5126157;28;20069;-57
2021/05/08 10:41:05;;;;;;;11.57;2.42;;;25.60;93.60;;;;;;5125374;28;20028;-56
2021/05/08 10:43:43;;;;;;;30.45;18.92;;;25.60;93.60;;;;;;5125309;28;20020;-57
2021/05/08 10:46:17;;;;;;;21.98;10.25;;;25.60;93.70;;;;;;5124725;28;20015;-59
2021/05/08 10:49:22;;;;;;;13.98;4.43;;;25.60;93.70;;;;;;5125469;28;20027;-55
2021/05/08 10:51:55;;;;;;;15.05;4.65;;;25.60;93.80;;;;;;5124927;28;20103;-56
2021/05/08 10:54:43;;;;;;;13.23;3.40;;;25.60;93.90;;;;;;5125457;28;20019;-53
2021/05/08 10:57:20;;;;;;;10.15;3.38;;;25.60;93.90;;;;;;5124750;28;20031;-56
2021/05/08 11:00:06;;;;;;;13.15;3.58;;;25.60;93.80;;;;;;5125866;28;20057;-55
2021/05/08 11:02:45;;;;;;;9.85;3.17;;;25.60;93.80;;;;;;5124655;28;20023;-61
2021/05/08 11:05:26;;;;;;;12.38;2.78;;;25.60;93.80;;;;;;5125065;28;20083;-56
2021/05/08 11:07:53;;;;;;;17.23;2.50;;;25.60;93.80;;;;;;5124720;28;20267;-59
2021/05/08 11:10:32;;;;;;;11.60;3.08;;;25.60;93.80;;;;;;5125181;28;20016;-56
2021/05/08 11:13:14;;;;;;;10.73;2.25;;;25.60;93.80;;;;;;5124373;28;20024;-57
2021/05/08 11:15:56;;;;;;;7.28;1.85;;;25.60;93.70;;;;;;5124579;28;20084;-61
2021/05/08 11:18:40;;;;;;;13.45;3.20;;;25.70;93.80;;;;;;5124528;28;20208;-61
2021/05/08 11:21:12;;;;;;;18.90;2.40;;;25.70;93.80;;;;;;5124685;28;20029;-62
2021/05/08 11:23:48;;;;;;;16.52;2.83;;;25.70;93.70;;;;;;5124578;28;20028;-62
2021/05/08 11:28:53;;;;;;;12.27;2.67;;;25.70;93.50;;;;;;5124697;28;20043;-59
2021/05/08 11:31:37;;;;;;;12.70;2.80;;;25.70;93.50;;;;;;5124540;28;20026;-54
2021/05/08 11:34:09;;;;;;;13.73;2.78;;;25.70;93.60;;;;;;5124943;28;20033;-59
2021/05/08 11:36:43;;;;;;;11.50;2.53;;;25.60;93.70;;;;;;5124277;28;20076;-61
2021/05/08 11:39:15;;;;;;;8.13;2.03;;;25.70;93.80;;;;;;5124866;28;20257;-60
2021/05/08 11:41:43;;;;;;;10.73;2.05;;;25.70;93.80;;;;;;5124612;28;20331;-55
2021/05/08 11:44:18;;;;;;;11.18;2.20;;;25.70;93.90;;;;;;5124417;28;20220;-60
2021/05/08 11:46:52;;;;;;;8.27;1.70;;;25.70;94.00;;;;;;5124345;28;20084;-60
2021/05/08 11:49:35;;;;;;;7.38;1.92;;;25.70;94.00;;;;;;5124347;28;20312;-57
2021/05/08 11:52:06;;;;;;;8.40;2.10;;;25.70;93.90;;;;;;5124007;28;20027;-56
2021/05/08 11:54:52;;;;;;;14.63;2.83;;;25.70;94.00;;;;;;5124087;28;20028;-55
2021/05/08 11:57:23;;;;;;;6.30;2.50;;;25.70;93.90;;;;;;5124083;28;20257;-55
2021/05/08 11:59:50;;;;;;;10.18;3.90;;;25.70;93.90;;;;;;5124571;28;20027;-55
2021/05/08 12:02:19;;;;;;;12.68;4.63;;;25.70;93.90;;;;;;5124147;28;20051;-55
2021/05/08 12:04:46;;;;;;;10.35;3.33;;;25.70;93.90;;;;;;5124940;28;20057;-57
2021/05/08 12:07:13;;;;;;;8.68;3.05;;;25.80;93.90;;;;;;5123602;28;20035;-59
2021/05/08 12:09:39;;;;;;;9.18;3.00;;;25.70;93.70;;;;;;5124519;28;20028;-60
2021/05/08 12:12:06;;;;;;;5.45;2.65;;;25.80;93.70;;;;;;5124401;28;20099;-57
2021/05/08 12:14:41;;;;;;;6.00;2.33;;;25.70;93.60;;;;;;5124460;28;20019;-63
2021/05/08 12:17:09;;;;;;;7.07;2.65;;;25.80;93.60;;;;;;5124146;28;20060;-62
2021/05/08 12:19:38;;;;;;;7.03;2.35;;;25.80;93.50;;;;;;5124306;28;20023;-55
2021/05/08 12:22:05;;;;;;;5.63;1.73;;;25.80;93.70;;;;;;5123704;28;20023;-55
2021/05/08 12:24:33;;;;;;;7.70;1.70;;;25.80;93.40;;;;;;5124540;28;20262;-59
2021/05/08 12:26:59;;;;;;;6.30;1.88;;;25.80;93.30;;;;;;5124031;28;20019;-53
2021/05/08 12:29:26;;;;;;;5.63;1.45;;;25.80;93.30;;;;;;5123708;28;20027;-58
2021/05/08 12:31:53;;;;;;;4.63;1.35;;;25.80;93.20;;;;;;5123697;28;20027;-61
2021/05/08 12:34:24;;;;;;;6.25;1.30;;;25.80;93.30;;;;;;5124426;28;20094;-59
2021/05/08 12:37:02;;;;;;;4.18;1.50;;;25.80;93.20;;;;;;5124412;28;20043;-57
2021/05/08 12:39:29;;;;;;;3.85;1.50;;;25.90;93.20;;;;;;5128044;28;20055;-56
2021/05/08 12:42:03;;;;;;;4.00;1.20;;;25.90;93.20;;;;;;5127417;28;20019;-58
2021/05/08 12:44:31;;;;;;;1.80;1.10;;;25.90;93.20;;;;;;5127801;28;20049;-61
2021/05/08 12:47:02;;;;;;;1.77;0.85;;;25.90;93.10;;;;;;5127584;28;20016;-56
2021/05/08 12:49:31;;;;;;;3.45;1.27;;;26.00;93.00;;;;;;5128138;28;20091;-56
2021/05/08 12:51:58;;;;;;;3.78;1.30;;;26.10;92.90;;;;;;5127421;28;20045;-56
2021/05/08 12:54:26;;;;;;;5.00;1.30;;;26.20;92.80;;;;;;5127963;28;20062;-54
2021/05/08 12:56:55;;;;;;;2.92;1.30;;;26.20;92.80;;;;;;5127340;28;20319;-57
2021/05/08 12:59:29;;;;;;;3.40;1.20;;;26.20;92.60;;;;;;5127898;28;20046;-58